sensor_id;sensor_type;location;lat;lon;timestamp;pressure;altitude;pressure_sealevel;temperature;humidity
72395;BME280;60384;48.152;11.614;2023-11-21T00:02:21;95114.69;;;9.61;59.71
72395;BME280;60384;48.152;11.614;2023-11-21T00:05:49;94717.59;;;6.89;59.46
72395;BME280;60384;48.152;11.614;2023-11-21T00:16:50;94774.75;;;7.26;60.41
72395;BME280;60384;48.152;11.614;2023-11-21T00:20:08;94654.03;;;6.61;60.16
72395;BME280;60384;48.152;11.614;2023-11-21T00:23:20;94939.97;;;8.32;60.40
72395;BME280;60384;48.152;11.614;2023-11-21T00:26:25;95036.88;;;9.05;60.59
72395;BME280;60384;48.152;11.614;2023-11-21T00:29:41;95005.63;;;8.73;61.15
72395;BME280;60384;48.152;11.614;2023-11-21T00:33:12;95076.28;;;9.29;60.97
72395;BME280;60384;48.152;11.614;2023-11-21T00:37:21;94701.16;;;6.94;61.03
72395;BME280;60384;48.152;11.614;2023-11-21T00:40:19;94742.72;;;7.00;61.06
72395;BME280;60384;48.152;11.614;2023-11-21T00:43:21;94808.47;;;7.60;61.26
72395;BME280;60384;48.152;11.614;2023-11-21T00:47:15;94929.47;;;8.45;60.92
72395;BME280;60384;48.152;11.614;2023-11-21T00:50:54;95058.06;;;9.26;60.77
72395;BME280;60384;48.152;11.614;2023-11-21T00:54:11;94670.22;;;6.94;60.82
72395;BME280;60384;48.152;11.614;2023-11-21T00:57:52;94646.25;;;6.81;60.88
72395;BME280;60384;48.152;11.614;2023-11-21T01:01:04;94816.09;;;7.70;60.83
72395;BME280;60384;48.152;11.614;2023-11-21T01:04:27;94990.13;;;8.76;60.90
72395;BME280;60384;48.152;11.614;2023-11-21T01:08:00;94619.50;;;6.70;60.73
72395;BME280;60384;48.152;11.614;2023-11-21T01:11:13;94525.19;;;6.06;60.42
72395;BME280;60384;48.152;11.614;2023-11-21T01:14:48;94600.94;;;6.63;60.77
72395;BME280;60384;48.152;11.614;2023-11-21T01:18:01;94830.44;;;8.10;60.85
72395;BME280;60384;48.152;11.614;2023-11-21T01:21:09;95089.06;;;9.47;60.73
72395;BME280;60384;48.152;11.614;2023-11-21T01:24:24;95046.50;;;9.40;60.78
72395;BME280;60384;48.152;11.614;2023-11-21T01:27:35;94892.75;;;8.49;60.96
72395;BME280;60384;48.152;11.614;2023-11-21T01:30:37;95065.34;;;9.52;60.72
72395;BME280;60384;48.152;11.614;2023-11-21T01:33:39;95061.50;;;9.55;60.43
72395;BME280;60384;48.152;11.614;2023-11-21T01:36:43;95035.44;;;9.37;60.42
72395;BME280;60384;48.152;11.614;2023-11-21T01:39:49;94928.34;;;8.61;60.60
72395;BME280;60384;48.152;11.614;2023-11-21T01:42:53;94941.72;;;8.74;60.77
72395;BME280;60384;48.152;11.614;2023-11-21T01:45:55;95072.13;;;9.55;60.69
72395;BME280;60384;48.152;11.614;2023-11-21T01:48:58;95051.03;;;9.47;60.80
72395;BME280;60384;48.152;11.614;2023-11-21T01:52:00;94917.34;;;8.64;60.78
72395;BME280;60384;48.152;11.614;2023-11-21T01:55:06;94990.97;;;9.11;60.80
72395;BME280;60384;48.152;11.614;2023-11-21T01:58:10;94946.84;;;8.76;60.90
72395;BME280;60384;48.152;11.614;2023-11-21T02:01:13;95047.06;;;9.36;60.84
72395;BME280;60384;48.152;11.614;2023-11-21T02:04:16;95021.28;;;9.23;60.94
72395;BME280;60384;48.152;11.614;2023-11-21T02:07:19;94989.22;;;8.97;60.77
72395;BME280;60384;48.152;11.614;2023-11-21T02:10:26;95077.69;;;9.60;60.95
72395;BME280;60384;48.152;11.614;2023-11-21T02:13:30;95076.84;;;9.59;60.93
72395;BME280;60384;48.152;11.614;2023-11-21T02:16:32;95058.19;;;9.46;60.93
72395;BME280;60384;48.152;11.614;2023-11-21T02:19:34;95052.00;;;9.39;60.94
72395;BME280;60384;48.152;11.614;2023-11-21T02:22:40;95076.09;;;9.65;60.88
72395;BME280;60384;48.152;11.614;2023-11-21T02:25:44;95082.19;;;9.59;60.95
72395;BME280;60384;48.152;11.614;2023-11-21T02:28:47;95084.84;;;9.59;60.96
72395;BME280;60384;48.152;11.614;2023-11-21T02:31:52;94974.75;;;8.99;61.04
72395;BME280;60384;48.152;11.614;2023-11-21T02:34:56;95080.47;;;9.52;61.55
72395;BME280;60384;48.152;11.614;2023-11-21T02:38:01;95074.13;;;9.46;61.42
72395;BME280;60384;48.152;11.614;2023-11-21T02:41:04;95081.81;;;9.34;61.80
72395;BME280;60384;48.152;11.614;2023-11-21T02:44:07;94962.19;;;8.52;62.06
72395;BME280;60384;48.152;11.614;2023-11-21T02:47:10;95037.00;;;8.97;62.04
72395;BME280;60384;48.152;11.614;2023-11-21T02:50:12;95074.59;;;9.22;62.13
72395;BME280;60384;48.152;11.614;2023-11-21T02:53:14;95057.19;;;9.19;62.05
72395;BME280;60384;48.152;11.614;2023-11-21T02:56:17;95043.59;;;9.01;62.02
72395;BME280;60384;48.152;11.614;2023-11-21T02:59:19;94991.97;;;8.76;62.40
72395;BME280;60384;48.152;11.614;2023-11-21T03:02:22;95052.47;;;9.15;62.25
72395;BME280;60384;48.152;11.614;2023-11-21T03:05:23;95046.56;;;9.19;62.23
72395;BME280;60384;48.152;11.614;2023-11-21T03:08:25;95018.25;;;8.98;61.95
72395;BME280;60384;48.152;11.614;2023-11-21T03:11:28;95048.56;;;9.11;62.29
72395;BME280;60384;48.152;11.614;2023-11-21T03:14:30;94886.31;;;8.09;62.45
72395;BME280;60384;48.152;11.614;2023-11-21T03:17:34;94996.66;;;8.80;62.30
72395;BME280;60384;48.152;11.614;2023-11-21T03:20:37;95047.97;;;9.15;62.22
72395;BME280;60384;48.152;11.614;2023-11-21T03:23:40;95009.88;;;9.01;62.59
72395;BME280;60384;48.152;11.614;2023-11-21T03:26:44;95011.91;;;8.99;62.19
72395;BME280;60384;48.152;11.614;2023-11-21T03:29:48;95050.44;;;9.17;62.48
72395;BME280;60384;48.152;11.614;2023-11-21T03:32:51;95041.88;;;9.21;62.16
72395;BME280;60384;48.152;11.614;2023-11-21T03:35:54;95046.19;;;9.22;62.13
72395;BME280;60384;48.152;11.614;2023-11-21T03:38:57;95017.28;;;9.06;62.40
72395;BME280;60384;48.152;11.614;2023-11-21T03:42:04;95038.41;;;9.21;62.35
72395;BME280;60384;48.152;11.614;2023-11-21T03:45:08;95037.59;;;9.20;62.53
72395;BME280;60384;48.152;11.614;2023-11-21T03:48:13;95004.78;;;9.00;62.18
72395;BME280;60384;48.152;11.614;2023-11-21T03:51:15;95049.22;;;9.19;62.35
72395;BME280;60384;48.152;11.614;2023-11-21T03:54:17;95051.06;;;9.19;62.43
72395;BME280;60384;48.152;11.614;2023-11-21T03:57:21;95036.13;;;9.18;62.65
72395;BME280;60384;48.152;11.614;2023-11-21T04:00:23;95043.72;;;9.21;62.65
72395;BME280;60384;48.152;11.614;2023-11-21T04:03:27;95038.34;;;9.14;62.34
72395;BME280;60384;48.152;11.614;2023-11-21T04:06:29;94931.94;;;8.47;62.57
72395;BME280;60384;48.152;11.614;2023-11-21T04:09:33;95048.97;;;9.14;62.52
72395;BME280;60384;48.152;11.614;2023-11-21T04:12:40;94927.81;;;8.44;62.77
72395;BME280;60384;48.152;11.614;2023-11-21T04:15:42;94948.28;;;8.50;62.36
72395;BME280;60384;48.152;11.614;2023-11-21T04:18:45;94844.44;;;7.97;62.42
72395;BME280;60384;48.152;11.614;2023-11-21T04:21:47;94923.16;;;8.46;62.65
72395;BME280;60384;48.152;11.614;2023-11-21T04:24:50;95049.84;;;9.21;62.52
72395;BME280;60384;48.152;11.614;2023-11-21T04:27:53;95031.06;;;9.23;62.47
72395;BME280;60384;48.152;11.614;2023-11-21T04:30:55;95022.59;;;9.06;62.43
72395;BME280;60384;48.152;11.614;2023-11-21T04:33:58;95005.16;;;8.97;62.92
72395;BME280;60384;48.152;11.614;2023-11-21T04:37:00;94896.25;;;8.28;62.65
72395;BME280;60384;48.152;11.614;2023-11-21T04:40:05;94988.31;;;8.83;62.53
72395;BME280;60384;48.152;11.614;2023-11-21T04:43:09;95067.06;;;9.25;62.70
72395;BME280;60384;48.152;11.614;2023-11-21T04:46:12;94937.31;;;8.60;62.74
72395;BME280;60384;48.152;11.614;2023-11-21T04:49:14;94948.75;;;8.60;62.88
72395;BME280;60384;48.152;11.614;2023-11-21T04:52:16;94847.38;;;7.81;62.64
72395;BME280;60384;48.152;11.614;2023-11-21T04:55:18;95044.09;;;9.18;62.99
72395;BME280;60384;48.152;11.614;2023-11-21T04:58:24;95058.41;;;9.17;62.75
72395;BME280;60384;48.152;11.614;2023-11-21T05:01:27;95010.63;;;8.89;63.05
72395;BME280;60384;48.152;11.614;2023-11-21T05:04:30;95046.88;;;9.03;63.04
72395;BME280;60384;48.152;11.614;2023-11-21T05:07:33;94940.69;;;8.41;63.09
72395;BME280;60384;48.152;11.614;2023-11-21T05:10:36;95067.16;;;9.11;63.10
72395;BME280;60384;48.152;11.614;2023-11-21T05:13:41;95051.41;;;9.09;63.32
72395;BME280;60384;48.152;11.614;2023-11-21T05:16:44;95052.06;;;9.11;63.04
72395;BME280;60384;48.152;11.614;2023-11-21T05:19:45;95054.72;;;9.11;62.95
72395;BME280;60384;48.152;11.614;2023-11-21T05:22:49;94939.59;;;8.35;63.02
72395;BME280;60384;48.152;11.614;2023-11-21T05:25:52;95041.75;;;9.01;63.05
72395;BME280;60384;48.152;11.614;2023-11-21T05:28:55;95059.59;;;9.14;63.05
72395;BME280;60384;48.152;11.614;2023-11-21T05:31:57;95064.31;;;9.12;62.87
72395;BME280;60384;48.152;11.614;2023-11-21T05:34:59;94972.78;;;8.52;63.15
72395;BME280;60384;48.152;11.614;2023-11-21T05:38:02;95050.91;;;8.92;63.14
72395;BME280;60384;48.152;11.614;2023-11-21T05:41:06;95053.38;;;9.00;63.07
72395;BME280;60384;48.152;11.614;2023-11-21T05:56:21;94600.81;;;5.92;63.06
72395;BME280;60384;48.152;11.614;2023-11-21T05:59:25;95107.19;;;9.09;62.87
72395;BME280;60384;48.152;11.614;2023-11-21T06:03:01;94904.25;;;8.07;63.09
72395;BME280;60384;48.152;11.614;2023-11-21T06:06:17;94736.66;;;6.85;62.72
72395;BME280;60384;48.152;11.614;2023-11-21T06:09:47;95097.59;;;9.08;63.10
72395;BME280;60384;48.152;11.614;2023-11-21T06:12:52;95079.38;;;9.05;63.01
72395;BME280;60384;48.152;11.614;2023-11-21T06:15:54;95064.53;;;8.89;63.16
72395;BME280;60384;48.152;11.614;2023-11-21T06:18:56;95028.81;;;8.64;63.20
72395;BME280;60384;48.152;11.614;2023-11-21T06:21:58;95088.72;;;9.01;63.13
72395;BME280;60384;48.152;11.614;2023-11-21T06:25:00;95084.81;;;8.97;63.37
72395;BME280;60384;48.152;11.614;2023-11-21T06:28:04;95102.44;;;9.04;63.18
72395;BME280;60384;48.152;11.614;2023-11-21T06:31:06;95097.97;;;9.05;63.21
72395;BME280;60384;48.152;11.614;2023-11-21T06:34:08;95101.06;;;9.09;62.81
72395;BME280;60384;48.152;11.614;2023-11-21T06:37:10;95112.31;;;9.11;62.83
72395;BME280;60384;48.152;11.614;2023-11-21T06:40:12;95080.09;;;8.92;63.16
72395;BME280;60384;48.152;11.614;2023-11-21T06:43:16;95111.06;;;9.07;63.11
72395;BME280;60384;48.152;11.614;2023-11-21T06:46:18;95106.38;;;9.09;63.09
72395;BME280;60384;48.152;11.614;2023-11-21T06:49:20;95112.31;;;9.11;62.85
72395;BME280;60384;48.152;11.614;2023-11-21T06:52:23;95083.97;;;8.90;62.77
72395;BME280;60384;48.152;11.614;2023-11-21T06:55:25;95090.56;;;9.00;62.64
72395;BME280;60384;48.152;11.614;2023-11-21T06:58:28;95050.47;;;8.67;62.78
72395;BME280;60384;48.152;11.614;2023-11-21T07:01:30;95128.91;;;9.19;62.94
72395;BME280;60384;48.152;11.614;2023-11-21T07:04:34;95134.47;;;9.24;62.72
72395;BME280;60384;48.152;11.614;2023-11-21T07:07:36;95130.00;;;9.25;62.59
72395;BME280;60384;48.152;11.614;2023-11-21T07:10:39;95107.38;;;9.08;62.68
72395;BME280;60384;48.152;11.614;2023-11-21T07:13:42;95117.03;;;9.15;62.82
72395;BME280;60384;48.152;11.614;2023-11-21T07:16:44;95122.94;;;9.11;63.00
72395;BME280;60384;48.152;11.614;2023-11-21T07:19:45;95015.00;;;8.47;62.77
72395;BME280;60384;48.152;11.614;2023-11-21T07:22:47;95142.44;;;9.24;62.88
72395;BME280;60384;48.152;11.614;2023-11-21T07:25:49;95145.09;;;9.24;62.82
72395;BME280;60384;48.152;11.614;2023-11-21T07:28:53;95133.41;;;9.19;62.71
72395;BME280;60384;48.152;11.614;2023-11-21T07:31:54;95085.28;;;8.79;62.33
72395;BME280;60384;48.152;11.614;2023-11-21T07:34:56;95033.63;;;8.54;62.60
72395;BME280;60384;48.152;11.614;2023-11-21T07:38:00;95149.66;;;9.30;62.59
72395;BME280;60384;48.152;11.614;2023-11-21T07:41:01;95149.06;;;9.35;62.53
72395;BME280;60384;48.152;11.614;2023-11-21T07:44:05;95156.84;;;9.36;62.36
72395;BME280;60384;48.152;11.614;2023-11-21T07:47:07;95148.09;;;9.43;62.59
72395;BME280;60384;48.152;11.614;2023-11-21T07:50:10;95139.88;;;9.37;62.45
72395;BME280;60384;48.152;11.614;2023-11-21T07:53:12;95134.72;;;9.29;62.48
72395;BME280;60384;48.152;11.614;2023-11-21T07:56:15;95070.72;;;8.96;62.20
72395;BME280;60384;48.152;11.614;2023-11-21T07:59:18;95155.38;;;9.62;62.22
72395;BME280;60384;48.152;11.614;2023-11-21T08:02:20;95157.06;;;9.69;62.31
72395;BME280;60384;48.152;11.614;2023-11-21T08:05:21;95150.59;;;9.79;61.99
72395;BME280;60384;48.152;11.614;2023-11-21T08:08:23;95154.31;;;9.84;61.83
72395;BME280;60384;48.152;11.614;2023-11-21T08:11:25;95071.81;;;9.36;62.02
72395;BME280;60384;48.152;11.614;2023-11-21T08:14:31;95151.41;;;9.86;61.87
72395;BME280;60384;48.152;11.614;2023-11-21T08:17:33;95130.91;;;9.73;61.76
72395;BME280;60384;48.152;11.614;2023-11-21T08:20:35;95151.66;;;9.84;61.84
72395;BME280;60384;48.152;11.614;2023-11-21T08:23:39;95161.66;;;9.89;61.85
72395;BME280;60384;48.152;11.614;2023-11-21T08:26:40;95157.38;;;9.88;61.82
72395;BME280;60384;48.152;11.614;2023-11-21T08:29:44;95164.97;;;9.91;61.72
72395;BME280;60384;48.152;11.614;2023-11-21T08:32:46;95161.72;;;9.95;61.96
72395;BME280;60384;48.152;11.614;2023-11-21T08:35:48;95159.22;;;9.87;61.87
72395;BME280;60384;48.152;11.614;2023-11-21T08:38:51;95143.31;;;9.94;61.93
72395;BME280;60384;48.152;11.614;2023-11-21T08:41:53;95131.66;;;9.95;61.62
72395;BME280;60384;48.152;11.614;2023-11-21T08:44:57;95150.72;;;10.05;61.55
72395;BME280;60384;48.152;11.614;2023-11-21T08:47:59;95058.84;;;9.55;61.60
72395;BME280;60384;48.152;11.614;2023-11-21T08:51:01;95163.97;;;10.33;61.32
72395;BME280;60384;48.152;11.614;2023-11-21T08:54:03;95168.75;;;10.51;60.93
72395;BME280;60384;48.152;11.614;2023-11-21T08:57:08;95145.44;;;10.66;60.83
72395;BME280;60384;48.152;11.614;2023-11-21T09:00:12;95152.44;;;10.80;60.78
72395;BME280;60384;48.152;11.614;2023-11-21T09:03:16;95127.84;;;10.71;60.92
72395;BME280;60384;48.152;11.614;2023-11-21T09:06:18;95155.91;;;10.81;60.81
72395;BME280;60384;48.152;11.614;2023-11-21T09:09:20;95162.06;;;10.81;60.63
72395;BME280;60384;48.152;11.614;2023-11-21T09:12:21;95127.97;;;10.43;60.81
72395;BME280;60384;48.152;11.614;2023-11-21T09:15:26;95148.69;;;10.55;61.24
72395;BME280;60384;48.152;11.614;2023-11-21T09:18:28;95161.81;;;10.56;60.87
72395;BME280;60384;48.152;11.614;2023-11-21T09:21:33;95181.88;;;10.59;61.10
72395;BME280;60384;48.152;11.614;2023-11-21T09:24:36;95188.44;;;10.56;61.10
72395;BME280;60384;48.152;11.614;2023-11-21T09:27:38;95195.00;;;10.67;60.97
72395;BME280;60384;48.152;11.614;2023-11-21T09:30:42;95192.78;;;10.70;61.25
72395;BME280;60384;48.152;11.614;2023-11-21T09:33:43;95180.44;;;10.56;61.00
72395;BME280;60384;48.152;11.614;2023-11-21T09:36:46;95205.03;;;10.65;61.08
72395;BME280;60384;48.152;11.614;2023-11-21T09:39:48;95114.53;;;10.10;60.99
72395;BME280;60384;48.152;11.614;2023-11-21T09:42:54;95176.34;;;10.60;60.89
72395;BME280;60384;48.152;11.614;2023-11-21T09:46:00;95190.56;;;10.94;60.77
72395;BME280;60384;48.152;11.614;2023-11-21T09:49:04;95183.44;;;11.07;60.35
72395;BME280;60384;48.152;11.614;2023-11-21T09:52:08;95188.38;;;11.24;60.16
72395;BME280;60384;48.152;11.614;2023-11-21T09:55:18;95103.28;;;11.22;59.32
72395;BME280;60384;48.152;11.614;2023-11-21T09:58:21;95062.22;;;11.56;58.45
72395;BME280;60384;48.152;11.614;2023-11-21T10:01:27;95189.44;;;12.46;58.79
72395;BME280;60384;48.152;11.614;2023-11-21T10:04:31;95114.84;;;12.00;58.83
72395;BME280;60384;48.152;11.614;2023-11-21T10:07:34;95188.25;;;12.36;59.17
72395;BME280;60384;48.152;11.614;2023-11-21T10:10:37;95186.19;;;12.38;59.20
72395;BME280;60384;48.152;11.614;2023-11-21T10:13:39;95187.25;;;12.30;59.12
72395;BME280;60384;48.152;11.614;2023-11-21T10:16:44;95122.94;;;11.80;59.66
72395;BME280;60384;48.152;11.614;2023-11-21T10:19:47;95190.38;;;12.07;59.99
72395;BME280;60384;48.152;11.614;2023-11-21T10:22:49;95183.00;;;12.03;60.11
72395;BME280;60384;48.152;11.614;2023-11-21T10:25:51;95147.72;;;11.68;60.28
72395;BME280;60384;48.152;11.614;2023-11-21T10:28:56;95136.88;;;11.49;60.14
72395;BME280;60384;48.152;11.614;2023-11-21T10:32:01;95179.16;;;11.79;60.16
72395;BME280;60384;48.152;11.614;2023-11-21T10:35:05;95134.03;;;11.58;60.35
72395;BME280;60384;48.152;11.614;2023-11-21T10:38:10;95191.25;;;11.88;60.12
72395;BME280;60384;48.152;11.614;2023-11-21T10:41:17;94989.19;;;10.53;59.82
72395;BME280;60384;48.152;11.614;2023-11-21T10:44:19;94937.94;;;10.12;59.99
72395;BME280;60384;48.152;11.614;2023-11-21T10:47:25;94924.84;;;10.10;59.98
72395;BME280;60384;48.152;11.614;2023-11-21T10:50:30;95120.50;;;11.46;59.73
72395;BME280;60384;48.152;11.614;2023-11-21T10:53:32;95184.63;;;12.04;59.70
72395;BME280;60384;48.152;11.614;2023-11-21T10:56:33;95179.53;;;11.96;59.58
72395;BME280;60384;48.152;11.614;2023-11-21T10:59:41;94993.50;;;10.74;59.57
72395;BME280;60384;48.152;11.614;2023-11-21T11:02:46;95106.75;;;11.56;59.83
72395;BME280;60384;48.152;11.614;2023-11-21T11:05:50;95183.03;;;11.90;59.93
72395;BME280;60384;48.152;11.614;2023-11-21T11:08:53;95177.06;;;11.94;59.82
72395;BME280;60384;48.152;11.614;2023-11-21T11:11:55;95087.47;;;11.47;59.70
72395;BME280;60384;48.152;11.614;2023-11-21T11:14:58;95153.06;;;11.94;59.68
72395;BME280;60384;48.152;11.614;2023-11-21T11:18:02;95098.94;;;11.47;59.57
72395;BME280;60384;48.152;11.614;2023-11-21T11:21:11;95182.63;;;11.86;59.99
72395;BME280;60384;48.152;11.614;2023-11-21T11:24:38;95197.19;;;11.70;60.38
72395;BME280;60384;48.152;11.614;2023-11-21T11:27:54;95141.63;;;11.34;60.20
72395;BME280;60384;48.152;11.614;2023-11-21T11:31:03;95130.56;;;11.18;60.26
72395;BME280;60384;48.152;11.614;2023-11-21T11:34:17;95072.75;;;10.85;60.54
72395;BME280;60384;48.152;11.614;2023-11-21T11:37:21;95174.84;;;11.52;60.65
72395;BME280;60384;48.152;11.614;2023-11-21T11:40:26;95038.34;;;10.70;60.49
72395;BME280;60384;48.152;11.614;2023-11-21T11:43:40;95061.88;;;10.80;60.35
72395;BME280;60384;48.152;11.614;2023-11-21T11:46:45;95169.09;;;11.48;60.63
72395;BME280;60384;48.152;11.614;2023-11-21T11:49:57;95101.44;;;10.90;60.15
72395;BME280;60384;48.152;11.614;2023-11-21T11:53:12;95098.16;;;10.88;60.86
72395;BME280;60384;48.152;11.614;2023-11-21T11:56:27;95135.88;;;11.11;60.90
72395;BME280;60384;48.152;11.614;2023-11-21T12:00:09;95169.50;;;11.32;60.79
72395;BME280;60384;48.152;11.614;2023-11-21T12:03:13;95159.84;;;11.31;60.90
72395;BME280;60384;48.152;11.614;2023-11-21T12:06:16;95056.13;;;10.50;60.79
72395;BME280;60384;48.152;11.614;2023-11-21T12:09:24;95120.50;;;10.87;60.75
72395;BME280;60384;48.152;11.614;2023-11-21T12:12:27;95027.41;;;10.26;60.79
72395;BME280;60384;48.152;11.614;2023-11-21T12:15:29;95087.69;;;10.66;60.47
72395;BME280;60384;48.152;11.614;2023-11-21T12:18:31;95120.06;;;10.83;60.40
72395;BME280;60384;48.152;11.614;2023-11-21T12:21:36;95177.06;;;11.15;60.24
72395;BME280;60384;48.152;11.614;2023-11-21T12:24:38;95168.47;;;11.13;59.97
72395;BME280;60384;48.152;11.614;2023-11-21T12:27:40;95146.94;;;11.01;60.09
72395;BME280;60384;48.152;11.614;2023-11-21T12:30:42;95160.06;;;11.23;60.23
72395;BME280;60384;48.152;11.614;2023-11-21T12:33:44;95129.94;;;11.16;59.87
72395;BME280;60384;48.152;11.614;2023-11-21T12:36:50;95122.75;;;11.36;59.78
72395;BME280;60384;48.152;11.614;2023-11-21T12:39:55;95106.53;;;11.51;59.28
72395;BME280;60384;48.152;11.614;2023-11-21T12:43:01;95166.38;;;12.07;58.88
72395;BME280;60384;48.152;11.614;2023-11-21T12:46:05;95162.59;;;12.35;58.83
72395;BME280;60384;48.152;11.614;2023-11-21T12:49:07;95088.00;;;11.89;58.76
72395;BME280;60384;48.152;11.614;2023-11-21T12:52:12;95120.59;;;12.04;59.01
72395;BME280;60384;48.152;11.614;2023-11-21T12:55:19;95081.72;;;11.63;59.21
72395;BME280;60384;48.152;11.614;2023-11-21T12:58:24;95152.06;;;11.82;59.47
72395;BME280;60384;48.152;11.614;2023-11-21T13:01:26;95111.25;;;11.48;59.68
72395;BME280;60384;48.152;11.614;2023-11-21T13:04:31;95182.19;;;11.69;59.88
72395;BME280;60384;48.152;11.614;2023-11-21T13:07:42;95121.53;;;11.12;59.92
72395;BME280;60384;48.152;11.614;2023-11-21T13:10:49;95177.09;;;11.41;60.16
72395;BME280;60384;48.152;11.614;2023-11-21T13:13:51;95115.78;;;10.95;60.12
72395;BME280;60384;48.152;11.614;2023-11-21T13:16:54;95120.91;;;10.84;60.20
72395;BME280;60384;48.152;11.614;2023-11-21T13:19:56;95143.44;;;11.01;60.50
72395;BME280;60384;48.152;11.614;2023-11-21T13:22:59;95161.91;;;11.09;60.39
72395;BME280;60384;48.152;11.614;2023-11-21T13:26:02;95187.75;;;11.28;60.27
72395;BME280;60384;48.152;11.614;2023-11-21T13:29:05;95127.06;;;10.91;60.51
72395;BME280;60384;48.152;11.614;2023-11-21T13:32:07;95193.09;;;11.41;60.14
72395;BME280;60384;48.152;11.614;2023-11-21T13:35:13;95090.97;;;10.75;60.38
72395;BME280;60384;48.152;11.614;2023-11-21T13:38:22;95040.97;;;10.37;60.22
72395;BME280;60384;48.152;11.614;2023-11-21T13:41:24;95165.41;;;11.16;60.55
72395;BME280;60384;48.152;11.614;2023-11-21T13:44:31;95202.69;;;11.29;60.54
72395;BME280;60384;48.152;11.614;2023-11-21T13:47:39;95200.25;;;11.34;60.86
72395;BME280;60384;48.152;11.614;2023-11-21T13:50:42;95193.28;;;11.33;60.95
72395;BME280;60384;48.152;11.614;2023-11-21T13:53:50;95179.16;;;11.26;60.76
72395;BME280;60384;48.152;11.614;2023-11-21T13:56:53;95205.38;;;11.49;60.69
72395;BME280;60384;48.152;11.614;2023-11-21T13:59:55;95212.97;;;11.52;60.64
72395;BME280;60384;48.152;11.614;2023-11-21T14:02:59;95227.94;;;11.53;60.96
72395;BME280;60384;48.152;11.614;2023-11-21T14:06:02;95076.81;;;10.61;60.81
72395;BME280;60384;48.152;11.614;2023-11-21T14:09:11;95134.00;;;10.85;60.89
72395;BME280;60384;48.152;11.614;2023-11-21T14:12:14;95213.75;;;11.06;60.74
72395;BME280;60384;48.152;11.614;2023-11-21T14:15:16;94909.25;;;9.13;61.00
72395;BME280;60384;48.152;11.614;2023-11-21T14:18:19;95266.41;;;10.98;61.60
72395;BME280;60384;48.152;11.614;2023-11-21T14:21:31;94829.97;;;8.00;61.62
72395;BME280;60384;48.152;11.614;2023-11-21T14:24:34;95216.00;;;10.35;62.43
72395;BME280;60384;48.152;11.614;2023-11-21T14:27:36;95208.84;;;10.08;62.67
72395;BME280;60384;48.152;11.614;2023-11-21T14:30:38;95185.06;;;10.00;62.82
72395;BME280;60384;48.152;11.614;2023-11-21T14:33:41;95082.50;;;9.15;62.41
72395;BME280;60384;48.152;11.614;2023-11-21T14:36:43;94865.72;;;7.83;62.51
72395;BME280;60384;48.152;11.614;2023-11-21T14:39:47;95262.63;;;10.31;62.58
72395;BME280;60384;48.152;11.614;2023-11-21T14:42:50;95261.19;;;10.29;62.46
72395;BME280;60384;48.152;11.614;2023-11-21T14:45:53;95102.41;;;9.26;62.29
72395;BME280;60384;48.152;11.614;2023-11-21T14:48:56;95188.06;;;9.84;62.15
72395;BME280;60384;48.152;11.614;2023-11-21T14:52:10;95153.94;;;9.59;62.31
72395;BME280;60384;48.152;11.614;2023-11-21T14:55:30;95185.34;;;9.77;62.36
72395;BME280;60384;48.152;11.614;2023-11-21T14:58:32;95260.56;;;10.27;62.42
72395;BME280;60384;48.152;11.614;2023-11-21T15:01:39;95276.75;;;10.32;62.43
72395;BME280;60384;48.152;11.614;2023-11-21T15:04:55;95282.84;;;10.26;62.28
72395;BME280;60384;48.152;11.614;2023-11-21T15:08:03;95281.59;;;10.22;62.49
72395;BME280;60384;48.152;11.614;2023-11-21T15:11:19;95250.97;;;10.04;62.37
72395;BME280;60384;48.152;11.614;2023-11-21T15:14:25;95276.84;;;10.17;62.56
72395;BME280;60384;48.152;11.614;2023-11-21T15:17:32;95244.94;;;9.89;62.51
72395;BME280;60384;48.152;11.614;2023-11-21T15:20:36;95039.59;;;8.62;62.58
72395;BME280;60384;48.152;11.614;2023-11-21T15:23:38;95230.19;;;9.87;62.31
72395;BME280;60384;48.152;11.614;2023-11-21T15:26:43;95182.97;;;9.61;62.34
72395;BME280;60384;48.152;11.614;2023-11-21T15:29:45;95102.31;;;9.13;62.45
72395;BME280;60384;48.152;11.614;2023-11-21T15:32:47;95168.59;;;9.49;62.47
72395;BME280;60384;48.152;11.614;2023-11-21T15:35:49;95270.59;;;10.03;62.85
72395;BME280;60384;48.152;11.614;2023-11-21T15:38:51;95199.88;;;9.53;62.84
72395;BME280;60384;48.152;11.614;2023-11-21T15:41:55;95135.78;;;9.07;62.73
72395;BME280;60384;48.152;11.614;2023-11-21T15:44:57;95284.25;;;9.94;63.21
72395;BME280;60384;48.152;11.614;2023-11-21T15:47:59;95266.84;;;9.63;63.29
72395;BME280;60384;48.152;11.614;2023-11-21T15:51:06;95276.19;;;9.59;63.58
72395;BME280;60384;48.152;11.614;2023-11-21T15:54:15;95100.91;;;8.46;63.96
72395;BME280;60384;48.152;11.614;2023-11-21T15:57:22;95241.28;;;9.20;64.07
72395;BME280;60384;48.152;11.614;2023-11-21T16:00:25;95284.06;;;9.46;64.09
72395;BME280;60384;48.152;11.614;2023-11-21T16:03:27;95309.00;;;9.66;64.13
72395;BME280;60384;48.152;11.614;2023-11-21T16:06:28;95301.13;;;9.58;63.97
72395;BME280;60384;48.152;11.614;2023-11-21T16:09:31;95305.06;;;9.62;63.99
72395;BME280;60384;48.152;11.614;2023-11-21T16:12:34;95321.06;;;9.69;64.08
72395;BME280;60384;48.152;11.614;2023-11-21T16:15:36;95236.50;;;9.09;63.80
72395;BME280;60384;48.152;11.614;2023-11-21T16:18:38;95266.28;;;9.25;63.95
72395;BME280;60384;48.152;11.614;2023-11-21T16:21:40;95327.34;;;9.61;64.01
72395;BME280;60384;48.152;11.614;2023-11-21T16:24:42;95251.16;;;9.04;64.12
72395;BME280;60384;48.152;11.614;2023-11-21T16:27:45;95344.00;;;9.49;64.22
72395;BME280;60384;48.152;11.614;2023-11-21T16:30:47;95126.75;;;8.08;64.33
72395;BME280;60384;48.152;11.614;2023-11-21T16:33:49;95356.63;;;9.47;64.46
72395;BME280;60384;48.152;11.614;2023-11-21T16:36:51;95348.41;;;9.42;64.25
72395;BME280;60384;48.152;11.614;2023-11-21T16:40:00;95075.22;;;7.60;64.28